Terminal Aerodrome Forecast
Issued by NWS Billings, MT

Home | Current Version | Previous Version | Graphics & Text | Print | Product List | Glossary On
Versions: 1 2 3 4 5 6 7 8 9 10 11 12 13 14 15 16 17 18 19 20 21
000
FTUS45 KBYZ 110018 AAA
TAFMLS
TAF AMD
KMLS 110018Z 1100/1124 VRB06KT 4SM -SN SCT015 BKN025
      TEMPO 1100/1103 3/4SM -SN BR BKN010
     FM110300 33007KT P6SM VCSH SCT005 SCT020 BKN035
     FM111400 VRB06KT P6SM VCSH SCT025 BKN035
     FM111900 23008KT P6SM SCT020=

USA.gov is the U.S. government's official web portal to all federal, state and local government web resources and services.